Franconia, New Hampshire
Current Conditions -  °F | °C
As of 6:52 AM on Thursday 29 Jan 2015 (Local Time) from KHIE Reporting Station
Clear Clear  
Wind Chill: -29°   Ceiling: Unl
Heat Index: -29°   Visibility: 10mi
Dew Point: -34°   Wind: 0mph
Humidity: 66%   Direction: NA
Pressure: 30.28"   Gusts: NA
Location:  44.23°N, 71.75°W
Report Text: KHIE 291152Z AUTO 00000KT 10SM CLR M29/M34 A3028 RMK AO2 SLP292 T12941339 11267 21300 55001
Loading
Personal Weather Stations






























Interactive Weather Map New forecast layout! Learn more

10-Day Weather Forecast

Advertisements
Track Severe Weather on mobile